createdAt,value
2018-04-16T00:00:41.818Z,49.27
2018-04-16T00:03:09.412Z,49.30
2018-04-16T00:05:37.009Z,50.02
2018-04-16T00:08:04.613Z,50.43
2018-04-16T00:10:32.173Z,50.96
2018-04-16T00:12:59.802Z,51.25
2018-04-16T00:15:27.401Z,51.27
2018-04-16T00:17:55.066Z,51.21
2018-04-16T00:20:22.737Z,51.86
2018-04-16T00:22:50.308Z,51.75
2018-04-16T00:25:17.942Z,50.36
2018-04-16T00:27:45.515Z,51.49
2018-04-16T00:30:13.081Z,52.47
2018-04-16T00:35:51.191Z,53.53
2018-04-16T00:38:24.250Z,54.39
2018-04-16T00:43:58.369Z,55.16
2018-04-16T00:46:31.517Z,56.24
2018-04-16T00:49:04.686Z,55.90
2018-04-16T00:51:37.868Z,56.33
2018-04-16T00:54:22.994Z,56.07
2018-04-16T00:56:56.206Z,56.08
2018-04-16T00:59:29.423Z,55.67
2018-04-16T01:02:02.582Z,55.24
2018-04-16T01:04:35.573Z,54.82
2018-04-16T01:07:08.759Z,54.79
2018-04-16T01:09:41.957Z,54.91
2018-04-16T01:12:15.178Z,53.95
2018-04-16T01:14:48.372Z,52.75
2018-04-16T01:17:21.498Z,52.08
2018-04-16T01:19:54.728Z,51.99
2018-04-16T01:22:27.916Z,51.30
2018-04-16T01:25:01.137Z,51.16
2018-04-16T01:27:34.170Z,51.02
2018-04-16T01:30:07.221Z,50.85
2018-04-16T01:32:40.176Z,50.61
2018-04-16T01:35:13.513Z,50.53
2018-04-16T01:37:46.502Z,50.23
2018-04-16T01:40:19.682Z,50.22
2018-04-16T01:42:52.725Z,51.95
2018-04-16T01:45:25.915Z,52.41
2018-04-16T01:51:04.318Z,52.93
2018-04-16T01:53:37.457Z,53.40
2018-04-16T01:56:10.654Z,55.16
2018-04-16T01:58:43.778Z,55.98
2018-04-16T02:01:17.030Z,56.27
2018-04-16T02:03:50.220Z,55.99
2018-04-16T02:06:23.363Z,56.20
2018-04-16T02:08:56.589Z,56.37
2018-04-16T02:11:29.968Z,57.06
2018-04-16T02:14:03.215Z,57.44
2018-04-16T02:16:36.477Z,57.24
2018-04-16T02:19:09.734Z,56.72
2018-04-16T02:21:43.046Z,56.53
2018-04-16T02:24:16.152Z,56.52
2018-04-16T02:26:49.235Z,56.15
2018-04-16T02:29:22.345Z,55.92
2018-04-16T02:31:55.563Z,56.07
2018-04-16T02:34:28.748Z,57.73
2018-04-16T02:37:01.860Z,54.21
2018-04-16T02:39:35.123Z,52.44
2018-04-16T02:42:08.222Z,53.27
2018-04-16T02:44:41.493Z,51.26
2018-04-16T02:47:14.693Z,50.64
2018-04-16T02:49:47.923Z,50.70
2018-04-16T02:52:20.880Z,51.26
2018-04-16T02:54:54.261Z,50.40
2018-04-16T02:57:27.418Z,50.61
2018-04-16T03:00:00.599Z,48.64
2018-04-16T03:02:33.635Z,47.13
2018-04-16T03:05:06.729Z,47.76
2018-04-16T03:07:39.923Z,47.02
2018-04-16T03:10:13.082Z,46.31
2018-04-16T03:12:46.150Z,45.73
2018-04-16T03:15:19.346Z,44.08
2018-04-16T03:17:52.485Z,43.74
2018-04-16T03:23:28.645Z,45.44
2018-04-16T03:29:02.889Z,44.23
2018-04-16T03:31:35.957Z,44.44
2018-04-16T03:34:09.099Z,44.19
2018-04-16T03:36:42.208Z,44.82
2018-04-16T03:39:15.353Z,46.36
2018-04-16T03:41:48.759Z,47.36
2018-04-16T03:44:21.909Z,47.65
2018-04-16T03:46:55.212Z,49.12
2018-04-16T03:49:28.312Z,48.80
2018-04-16T03:52:01.655Z,49.37
2018-04-16T03:54:29.324Z,50.01
2018-04-16T03:56:56.884Z,48.49
2018-04-16T03:59:24.442Z,51.42
2018-04-16T04:01:52.066Z,52.14
2018-04-16T04:04:19.644Z,48.25
2018-04-16T04:06:47.213Z,52.03
2018-04-16T04:09:14.841Z,53.76
2018-04-16T04:11:42.471Z,55.38
2018-04-16T04:14:10.051Z,56.37
2018-04-16T04:16:38.391Z,56.50
2018-04-16T04:19:06.021Z,55.20
2018-04-16T04:21:33.584Z,55.96
2018-04-16T04:24:13.145Z,55.62
2018-04-16T04:26:52.737Z,51.92
2018-04-16T04:29:31.972Z,54.67
2018-04-16T04:31:59.601Z,52.80
2018-04-16T04:34:27.170Z,46.68
2018-04-16T04:36:54.855Z,46.75
2018-04-16T04:39:22.422Z,44.62
2018-04-16T04:41:50.048Z,45.91
2018-04-16T04:44:17.625Z,46.25
2018-04-16T04:46:45.260Z,44.79
2018-04-16T04:49:12.851Z,44.91
2018-04-16T04:51:40.464Z,45.22
2018-04-16T04:54:08.991Z,43.43
2018-04-16T04:56:36.555Z,43.62
2018-04-16T04:59:04.122Z,41.94
2018-04-16T05:01:31.748Z,42.36
2018-04-16T05:03:59.369Z,41.86
2018-04-16T05:06:27.059Z,40.80
2018-04-16T05:08:54.672Z,40.27
2018-04-16T05:11:22.293Z,40.33
2018-04-16T05:13:49.858Z,40.54
2018-04-16T05:16:17.424Z,39.79
2018-04-16T05:18:45.015Z,39.89
2018-04-16T05:21:12.585Z,39.52
2018-04-16T05:23:40.167Z,39.03
2018-04-16T05:26:07.752Z,39.05
2018-04-16T05:28:35.377Z,39.71
2018-04-16T05:31:03.001Z,39.61
2018-04-16T05:33:30.568Z,39.43
2018-04-16T05:35:58.140Z,38.88
2018-04-16T05:38:25.715Z,38.55
2018-04-16T05:40:53.297Z,37.76
2018-04-16T05:43:20.882Z,38.29
2018-04-16T05:45:48.505Z,36.85
2018-04-16T05:48:16.068Z,36.72
2018-04-16T05:50:43.635Z,35.23
2018-04-16T05:53:11.912Z,36.22
2018-04-16T05:55:39.479Z,35.60
2018-04-16T05:58:07.107Z,36.33
2018-04-16T06:00:34.781Z,36.04
2018-04-16T06:03:02.399Z,36.78
2018-04-16T06:05:29.965Z,39.08
2018-04-16T06:07:57.577Z,34.74
2018-04-16T06:10:25.209Z,34.43
2018-04-16T06:12:52.768Z,34.93
2018-04-16T06:15:20.469Z,34.79
2018-04-16T06:17:48.085Z,33.73
2018-04-16T06:20:15.717Z,34.13
2018-04-16T06:22:43.281Z,33.11
2018-04-16T06:25:10.890Z,34.42
2018-04-16T06:27:38.464Z,33.21
2018-04-16T06:30:06.130Z,34.04
2018-04-16T06:32:33.708Z,35.76
2018-04-16T06:35:01.257Z,35.02
2018-04-16T06:37:28.941Z,35.24
2018-04-16T06:39:56.569Z,35.50
2018-04-16T06:42:24.149Z,36.22
2018-04-16T06:44:51.796Z,37.12
2018-04-16T06:47:19.421Z,35.27
2018-04-16T06:49:46.998Z,35.71
2018-04-16T06:52:14.631Z,36.82
2018-04-16T06:54:42.260Z,35.48
2018-04-16T06:57:09.820Z,37.29
2018-04-16T06:59:37.368Z,36.88
2018-04-16T07:02:05.004Z,35.64
2018-04-16T07:04:32.646Z,35.55
2018-04-16T07:07:00.223Z,34.35
2018-04-16T07:09:27.863Z,33.61
2018-04-16T07:11:55.512Z,35.31
2018-04-16T07:14:23.077Z,33.65
2018-04-16T07:16:50.700Z,33.60
2018-04-16T07:19:18.294Z,32.79
2018-04-16T07:21:45.909Z,34.21
2018-04-16T07:24:13.543Z,33.08
2018-04-16T07:26:41.093Z,34.04
2018-04-16T07:29:08.704Z,33.06
2018-04-16T07:31:36.329Z,34.17
2018-04-16T07:34:03.946Z,33.23
2018-04-16T07:36:31.521Z,33.96
2018-04-16T07:38:59.082Z,32.32
2018-04-16T07:41:26.665Z,34.07
2018-04-16T07:43:54.244Z,34.38
2018-04-16T07:46:21.925Z,36.90
2018-04-16T07:48:49.566Z,35.12
2018-04-16T07:51:17.131Z,34.90
2018-04-16T07:53:44.715Z,34.79
2018-04-16T07:56:12.294Z,34.23
2018-04-16T07:58:39.964Z,34.48
2018-04-16T08:01:07.539Z,32.83
2018-04-16T08:03:35.165Z,34.18
2018-04-16T08:06:02.773Z,32.78
2018-04-16T08:08:30.377Z,32.51
2018-04-16T08:10:58.016Z,31.80
2018-04-16T08:13:25.620Z,33.17
2018-04-16T08:15:53.242Z,32.92
2018-04-16T08:18:20.874Z,32.10
2018-04-16T08:20:48.437Z,32.36
2018-04-16T08:23:16.157Z,32.36
2018-04-16T08:25:43.779Z,33.65
2018-04-16T08:28:11.413Z,32.58
2018-04-16T08:30:38.991Z,32.60
2018-04-16T08:33:06.554Z,31.68
2018-04-16T08:35:34.273Z,31.70
2018-04-16T08:38:01.833Z,31.55
2018-04-16T08:40:29.459Z,31.78
2018-04-16T08:42:57.090Z,31.70
2018-04-16T08:45:24.654Z,30.66
2018-04-16T08:47:52.289Z,31.67
2018-04-16T08:50:19.860Z,31.42
2018-04-16T08:52:47.422Z,31.38
2018-04-16T08:55:14.993Z,31.50
2018-04-16T08:57:42.557Z,29.98
2018-04-16T09:00:10.181Z,29.89
2018-04-16T09:02:37.799Z,30.12
2018-04-16T09:05:05.404Z,29.77
2018-04-16T09:07:32.982Z,31.33
2018-04-16T09:10:00.521Z,31.51
2018-04-16T09:12:28.199Z,30.14
2018-04-16T09:14:55.867Z,30.60
2018-04-16T09:17:23.459Z,31.59
2018-04-16T09:19:51.130Z,32.71
2018-04-16T09:22:18.693Z,30.33
2018-04-16T09:24:46.280Z,30.41
2018-04-16T09:27:13.907Z,28.86
2018-04-16T09:29:41.548Z,31.29
2018-04-16T09:32:09.125Z,31.41
2018-04-16T09:34:36.685Z,30.20
2018-04-16T09:37:04.257Z,28.02
2018-04-16T09:39:31.855Z,29.13
2018-04-16T09:41:59.429Z,27.48
2018-04-16T09:44:27.000Z,26.09
2018-04-16T09:46:54.628Z,28.06
2018-04-16T09:49:22.188Z,26.26
2018-04-16T09:51:49.757Z,26.88
2018-04-16T09:54:17.366Z,24.99
2018-04-16T09:56:44.984Z,26.10
2018-04-16T09:59:12.618Z,24.79
2018-04-16T10:01:40.208Z,24.13
2018-04-16T10:04:07.833Z,24.92
2018-04-16T10:06:35.472Z,24.73
2018-04-16T10:09:03.116Z,26.01
2018-04-16T10:11:30.720Z,25.32
2018-04-16T10:13:58.395Z,24.21
2018-04-16T10:16:25.965Z,24.47
2018-04-16T10:18:53.524Z,23.78
2018-04-16T10:21:21.219Z,21.89
2018-04-16T10:23:48.782Z,23.30
2018-04-16T10:26:16.409Z,21.69
2018-04-16T10:28:44.051Z,24.58
2018-04-16T10:31:11.679Z,21.98
2018-04-16T10:33:39.290Z,23.56
2018-04-16T10:36:06.848Z,22.18
2018-04-16T10:38:34.409Z,23.57
2018-04-16T10:41:02.071Z,21.56
2018-04-16T10:43:29.736Z,21.44
2018-04-16T10:45:57.424Z,21.67
2018-04-16T10:48:25.057Z,21.04
2018-04-16T10:50:52.679Z,22.11
2018-04-16T10:53:20.307Z,21.22
2018-04-16T10:55:47.860Z,19.54
2018-04-16T10:58:15.480Z,20.07
2018-04-16T11:00:43.043Z,20.94
2018-04-16T11:03:10.607Z,18.20
2018-04-16T11:05:38.221Z,19.75
2018-04-16T11:08:05.788Z,20.00
2018-04-16T11:10:33.405Z,19.15
2018-04-16T11:13:00.979Z,19.29
2018-04-16T11:15:28.559Z,21.05
2018-04-16T11:17:56.210Z,17.85
2018-04-16T11:20:23.784Z,18.16
2018-04-16T11:22:51.442Z,17.45
2018-04-16T11:25:19.010Z,18.06
2018-04-16T11:27:46.619Z,17.57
2018-04-16T11:30:14.242Z,17.96
2018-04-16T11:32:41.810Z,20.13
2018-04-16T11:35:09.437Z,17.72
2018-04-16T11:37:37.126Z,17.41
2018-04-16T11:40:04.684Z,17.86
2018-04-16T11:42:32.257Z,18.93
2018-04-16T11:44:59.826Z,18.23
2018-04-16T11:47:27.442Z,17.90
2018-04-16T11:49:55.001Z,17.66
2018-04-16T11:52:22.565Z,19.45
2018-04-16T11:54:50.146Z,17.83
2018-04-16T11:57:17.774Z,19.38
2018-04-16T11:59:45.348Z,18.78
2018-04-16T12:02:12.932Z,17.93
2018-04-16T12:04:40.747Z,17.79
2018-04-16T12:07:08.384Z,18.18
2018-04-16T12:09:35.949Z,18.04
2018-04-16T12:12:03.590Z,17.26
2018-04-16T12:14:31.177Z,16.82
2018-04-16T12:16:58.750Z,16.13
2018-04-16T12:19:26.417Z,18.94
2018-04-16T12:21:54.052Z,18.42
2018-04-16T12:24:21.764Z,18.56
2018-04-16T12:26:49.399Z,19.39
2018-04-16T12:29:17.061Z,17.67
2018-04-16T12:31:44.624Z,17.96
2018-04-16T12:34:12.205Z,19.80
2018-04-16T12:36:39.783Z,18.80
2018-04-16T12:39:07.451Z,20.28
2018-04-16T12:41:35.090Z,19.03
2018-04-16T12:44:02.723Z,19.67
2018-04-16T12:46:30.357Z,20.48
2018-04-16T12:48:57.918Z,19.47
2018-04-16T12:51:25.484Z,18.78
2018-04-16T12:53:53.076Z,19.49
2018-04-16T12:56:20.794Z,19.19
2018-04-16T12:58:48.430Z,20.99
2018-04-16T13:01:16.027Z,20.53
2018-04-16T13:03:43.609Z,20.09
2018-04-16T13:06:11.156Z,19.85
2018-04-16T13:08:38.767Z,19.65
2018-04-16T13:11:06.339Z,20.42
2018-04-16T13:13:34.045Z,19.56
2018-04-16T13:16:01.608Z,20.71
2018-04-16T13:18:29.237Z,19.69
2018-04-16T13:20:56.868Z,20.19
2018-04-16T13:23:24.431Z,20.02
2018-04-16T13:25:52.019Z,20.58
2018-04-16T13:28:19.597Z,20.68
2018-04-16T13:30:47.234Z,19.87
2018-04-16T13:33:14.801Z,19.80
2018-04-16T13:35:42.369Z,19.84
2018-04-16T13:38:10.010Z,20.38
2018-04-16T13:40:37.574Z,20.49
2018-04-16T13:43:05.247Z,20.64
2018-04-16T13:45:32.812Z,22.02
2018-04-16T13:48:00.429Z,21.96
2018-04-16T13:50:27.990Z,21.24
2018-04-16T13:52:55.553Z,21.09
2018-04-16T13:55:23.135Z,21.89
2018-04-16T13:57:50.789Z,21.79
2018-04-16T14:00:18.365Z,22.01
2018-04-16T14:02:45.920Z,21.13
2018-04-16T14:05:13.563Z,21.19
2018-04-16T14:07:41.189Z,20.36
2018-04-16T14:10:08.813Z,21.12
2018-04-16T14:12:36.384Z,20.46
2018-04-16T14:15:04.006Z,19.96
2018-04-16T14:17:31.653Z,19.14
2018-04-16T14:19:59.209Z,20.10
2018-04-16T14:22:26.843Z,20.77
2018-04-16T14:24:54.401Z,19.69
2018-04-16T14:27:22.027Z,19.78
2018-04-16T14:29:49.606Z,20.50
2018-04-16T14:32:17.235Z,20.22
2018-04-16T14:34:44.812Z,20.35
2018-04-16T14:37:12.440Z,20.45
2018-04-16T14:39:40.060Z,20.80
2018-04-16T14:42:07.636Z,20.80
2018-04-16T14:44:35.212Z,19.80
2018-04-16T14:47:02.848Z,20.09
2018-04-16T14:49:30.412Z,20.48
2018-04-16T14:51:58.037Z,20.55
2018-04-16T14:54:25.660Z,20.31
2018-04-16T14:56:53.338Z,21.24
2018-04-16T14:59:20.942Z,21.19
2018-04-16T15:01:48.503Z,21.04
2018-04-16T15:04:16.166Z,21.17
2018-04-16T15:06:43.793Z,20.29
2018-04-16T15:09:11.421Z,21.15
2018-04-16T15:11:38.985Z,20.36
2018-04-16T15:14:06.607Z,20.27
2018-04-16T15:16:34.178Z,19.65
2018-04-16T15:19:01.778Z,20.95
2018-04-16T15:21:29.408Z,22.16
2018-04-16T15:23:56.985Z,20.88
2018-04-16T15:26:24.561Z,21.05
2018-04-16T15:28:52.149Z,21.27
2018-04-16T15:31:19.682Z,21.81
2018-04-16T15:33:47.316Z,21.44
2018-04-16T15:36:14.876Z,21.46
2018-04-16T15:38:42.490Z,21.96
2018-04-16T15:41:10.037Z,21.10
2018-04-16T15:43:37.669Z,22.19
2018-04-16T15:46:05.294Z,21.37
2018-04-16T15:48:32.922Z,22.66
2018-04-16T15:51:00.597Z,21.12
2018-04-16T15:53:28.203Z,21.65
2018-04-16T15:55:55.762Z,21.57
2018-04-16T15:58:23.457Z,21.38
2018-04-16T16:00:51.057Z,21.34
2018-04-16T16:03:18.641Z,21.84
2018-04-16T16:05:46.272Z,21.52
2018-04-16T16:08:13.900Z,21.67
2018-04-16T16:10:41.491Z,21.85
2018-04-16T16:13:09.115Z,22.71
2018-04-16T16:15:36.681Z,22.89
2018-04-16T16:18:04.262Z,23.00
2018-04-16T16:20:31.828Z,22.68
2018-04-16T16:22:59.496Z,22.69
2018-04-16T16:25:27.127Z,23.47
2018-04-16T16:27:54.694Z,23.23
2018-04-16T16:30:22.246Z,23.57
2018-04-16T16:32:49.818Z,23.71
2018-04-16T16:35:17.384Z,23.40
2018-04-16T16:37:44.951Z,23.01
2018-04-16T16:40:12.525Z,24.33
2018-04-16T16:42:40.245Z,23.26
2018-04-16T16:45:07.807Z,23.61
2018-04-16T16:47:35.474Z,23.07
2018-04-16T16:50:03.105Z,23.60
2018-04-16T16:52:30.734Z,24.33
2018-04-16T16:54:58.304Z,24.62
2018-04-16T16:57:25.928Z,24.36
2018-04-16T16:59:53.573Z,24.59
2018-04-16T17:02:21.212Z,24.80
2018-04-16T17:04:48.850Z,24.97
2018-04-16T17:07:16.427Z,24.93
2018-04-16T17:09:43.988Z,25.49
2018-04-16T17:12:11.552Z,25.98
2018-04-16T17:14:39.178Z,26.30
2018-04-16T17:17:06.796Z,26.68
2018-04-16T17:19:34.435Z,26.93
2018-04-16T17:22:01.997Z,27.26
2018-04-16T17:24:29.574Z,27.15
2018-04-16T17:26:57.150Z,26.97
2018-04-16T17:29:24.728Z,27.27
2018-04-16T17:31:52.373Z,26.67
2018-04-16T17:34:20.065Z,26.58
2018-04-16T17:36:47.689Z,26.55
2018-04-16T17:39:15.238Z,26.30
2018-04-16T17:41:42.824Z,26.44
2018-04-16T17:44:10.443Z,26.25
2018-04-16T17:46:38.017Z,26.61
2018-04-16T17:49:05.649Z,26.83
2018-04-16T17:51:33.274Z,26.90
2018-04-16T17:54:00.895Z,27.34
2018-04-16T17:56:28.512Z,27.23
2018-04-16T17:58:56.077Z,27.70
2018-04-16T18:01:23.693Z,27.74
2018-04-16T18:03:51.283Z,28.18
2018-04-16T18:06:18.904Z,28.47
2018-04-16T18:08:46.508Z,28.92
2018-04-16T18:11:14.069Z,28.43
2018-04-16T18:13:41.695Z,30.57
2018-04-16T18:16:09.304Z,30.59
2018-04-16T18:18:36.914Z,30.74
2018-04-16T18:21:04.490Z,31.00
2018-04-16T18:23:32.050Z,30.37
2018-04-16T18:25:59.669Z,30.51
2018-04-16T18:28:27.298Z,30.74
2018-04-16T18:30:54.876Z,30.99
2018-04-16T18:33:22.437Z,31.20
2018-04-16T18:35:50.085Z,31.12
2018-04-16T18:38:17.657Z,31.18
2018-04-16T18:40:45.221Z,31.15
2018-04-16T18:43:12.856Z,30.79
2018-04-16T18:45:40.421Z,30.33
2018-04-16T18:48:08.084Z,30.77
2018-04-16T18:50:35.718Z,30.73
2018-04-16T18:53:03.282Z,30.56
2018-04-16T18:55:30.876Z,30.38
2018-04-16T18:57:58.514Z,30.17
2018-04-16T19:00:26.090Z,30.72
2018-04-16T19:02:53.653Z,30.43
2018-04-16T19:05:21.233Z,30.49
2018-04-16T19:07:48.825Z,30.66
2018-04-16T19:10:16.513Z,30.63
2018-04-16T19:12:44.137Z,30.78
2018-04-16T19:15:11.721Z,31.11
2018-04-16T19:17:44.691Z,31.43
2018-04-16T19:20:12.341Z,31.33
2018-04-16T19:22:39.970Z,32.29
2018-04-16T19:25:07.537Z,31.71
2018-04-16T19:27:40.774Z,32.80
2018-04-16T19:30:08.343Z,33.21
2018-04-16T19:32:41.608Z,33.02
2018-04-16T19:35:09.238Z,33.39
2018-04-16T19:37:36.805Z,33.67
2018-04-16T19:40:04.362Z,33.76
2018-04-16T19:42:37.546Z,33.75
2018-04-16T19:45:05.113Z,33.82
2018-04-16T19:47:32.744Z,34.05
2018-04-16T19:50:05.997Z,34.57
2018-04-16T19:52:33.568Z,35.02
2018-04-16T19:55:01.202Z,35.46
2018-04-16T19:57:34.341Z,35.59
2018-04-16T20:00:02.008Z,36.05
2018-04-16T20:02:35.163Z,34.83
2018-04-16T20:05:02.887Z,35.36
2018-04-16T20:07:30.512Z,35.77
2018-04-16T20:09:58.174Z,36.25
2018-04-16T20:12:25.777Z,36.78
2018-04-16T20:14:53.361Z,37.53
2018-04-16T20:17:20.993Z,38.27
2018-04-16T20:19:48.567Z,37.95
2018-04-16T20:22:16.191Z,38.16
2018-04-16T20:24:43.759Z,38.85
2018-04-16T20:27:11.381Z,38.75
2018-04-16T20:29:38.972Z,39.30
2018-04-16T20:32:06.622Z,39.73
2018-04-16T20:34:34.234Z,39.92
2018-04-16T20:37:01.809Z,41.48
2018-04-16T20:39:29.414Z,40.83
2018-04-16T20:41:56.982Z,39.54
2018-04-16T20:44:24.572Z,39.69
2018-04-16T20:46:52.145Z,39.60
2018-04-16T20:49:19.793Z,41.21
2018-04-16T20:51:47.361Z,41.43
2018-04-16T20:54:14.993Z,41.47
2018-04-16T20:56:42.621Z,41.03
2018-04-16T20:59:10.245Z,41.47
2018-04-16T21:01:37.815Z,42.01
2018-04-16T21:04:05.389Z,42.73
2018-04-16T21:06:32.950Z,43.33
2018-04-16T21:09:00.578Z,43.45
2018-04-16T21:11:28.209Z,43.34
2018-04-16T21:13:55.776Z,44.34
2018-04-16T21:16:23.349Z,43.41
2018-04-16T21:18:50.913Z,43.09
2018-04-16T21:21:18.520Z,39.96
2018-04-16T21:23:46.137Z,41.42
2018-04-16T21:26:13.725Z,45.52
2018-04-16T21:28:41.302Z,45.41
2018-04-16T21:31:08.857Z,43.71
2018-04-16T21:33:36.484Z,44.55
2018-04-16T21:36:04.053Z,43.69
2018-04-16T21:38:31.672Z,43.38
2018-04-16T21:40:59.318Z,43.38
2018-04-16T21:43:26.869Z,43.43
2018-04-16T21:45:54.433Z,43.58
2018-04-16T21:48:21.989Z,43.83
2018-04-16T21:50:49.563Z,44.39
2018-04-16T21:53:17.229Z,44.05
2018-04-16T21:55:44.909Z,43.91
2018-04-16T21:58:12.469Z,44.25
2018-04-16T22:00:40.025Z,44.62
2018-04-16T22:03:07.641Z,45.20
2018-04-16T22:05:35.188Z,45.24
2018-04-16T22:08:02.864Z,45.31
2018-04-16T22:10:30.436Z,45.26
2018-04-16T22:12:58.024Z,45.18
2018-04-16T22:15:25.664Z,45.65
2018-04-16T22:17:53.289Z,45.79
2018-04-16T22:20:20.901Z,45.95
2018-04-16T22:22:48.505Z,46.55
2018-04-16T22:25:16.064Z,47.84
2018-04-16T22:27:43.637Z,49.69
2018-04-16T22:30:11.236Z,51.13
2018-04-16T22:32:38.909Z,52.22
2018-04-16T22:35:06.469Z,53.23
2018-04-16T22:37:34.094Z,52.89
2018-04-16T22:40:01.729Z,50.98
2018-04-16T22:42:29.304Z,49.27
2018-04-16T22:44:56.917Z,49.22
2018-04-16T22:47:24.469Z,50.98
2018-04-16T22:49:52.028Z,50.89
2018-04-16T22:52:19.603Z,50.64
2018-04-16T22:54:47.217Z,50.21
2018-04-16T22:57:14.784Z,49.18
2018-04-16T22:59:42.409Z,48.66
2018-04-16T23:02:10.086Z,47.98
2018-04-16T23:04:37.666Z,48.16
2018-04-16T23:07:05.285Z,48.08
2018-04-16T23:09:32.917Z,47.21
2018-04-16T23:12:00.493Z,47.67
2018-04-16T23:14:28.122Z,47.25
2018-04-16T23:16:55.732Z,47.35
2018-04-16T23:19:23.349Z,47.67
2018-04-16T23:21:50.918Z,48.58
2018-04-16T23:24:18.496Z,50.81
2018-04-16T23:26:46.068Z,51.04
2018-04-16T23:29:13.685Z,51.65
2018-04-16T23:31:41.258Z,52.60
2018-04-16T23:34:08.812Z,53.69
2018-04-16T23:36:36.430Z,54.49
2018-04-16T23:39:04.157Z,56.48
2018-04-16T23:41:31.781Z,56.96
2018-04-16T23:43:59.343Z,56.98
2018-04-16T23:46:26.912Z,57.47
2018-04-16T23:48:54.544Z,57.54
2018-04-16T23:51:22.175Z,57.42
2018-04-16T23:53:49.855Z,57.17
2018-04-16T23:56:17.428Z,57.49
2018-04-16T23:58:45.046Z,58.11
